SEA weather

Seattle Tacoma International Airport
Seattle, Washington, United States

Public forecast

Using degrees Fahrenheit for public forecast. Weather courtesy of forecast.io.

METAR (pilot weather report)

Retrieved 2019/02/17 14:16 UTC (14 seconds ago):

KSEA 171416Z 00000KT 10SM BKN014 OVC060 02/00 A3007

TAF (pilot weather forecast)

Retrieved 2019/02/17 12:42 UTC (2 hours ago):

TAF KSEA 171139Z 1712/1818 15004KT P6SM BKN012 FM171400 VRB03KT P6SM OVC007 FM171900 VRB04KT P6SM SCT005 BKN012 OVC020 FM172100 34006KT P6SM SCT012 BKN025 BKN040 FM180000 35003KT P6SM SCT025 BKN040 FM180700 11004KT P6SM SCT015 BKN030 FM181200 11004KT P6SM SCT010 BKN025